Time;durP1;ratioP1;P1;durP2;ratioP2;P2;SDS_P1;SDS_P2;PMS_P1;PMS_P2;Temp;Humidity;BMP_temperature;BMP_pressure;BME280_temperature;BME280_humidity;BME280_pressure;Samples;Min_cycle;Max_cycle;Signal;HPM_P1;HPM_P2
2022/06/29 00:03:24;;;;;;;6.18;2.67;;;;;;;19.41;71.80;96578.25;10367947;28;20559;-22
2022/06/29 00:08:25;;;;;;;5.43;3.17;;;;;;;19.37;71.76;96582.50;10376789;28;20036;-21
2022/06/29 00:13:25;;;;;;;6.43;3.03;;;;;;;19.36;71.81;96574.91;10366828;28;20033;-22
2022/06/29 00:18:26;;;;;;;4.13;3.23;;;;;;;19.39;71.47;96574.88;10367425;28;20040;-21
2022/06/29 00:23:26;;;;;;;5.43;3.10;;;;;;;19.40;71.52;96577.41;10366830;28;20037;-23
2022/06/29 00:28:27;;;;;;;3.00;2.57;;;;;;;19.38;71.51;96565.56;10367999;28;20038;-22
2022/06/29 00:33:28;;;;;;;3.28;2.97;;;;;;;19.38;71.34;96576.56;10367079;28;20038;-21
2022/06/29 00:38:28;;;;;;;3.53;3.23;;;;;;;19.28;71.24;96554.66;10375379;28;20049;-21
2022/06/29 00:43:28;;;;;;;3.57;3.27;;;;;;;19.35;71.01;96550.38;10366465;28;20038;-21
2022/06/29 00:48:29;;;;;;;5.03;2.83;;;;;;;19.29;71.32;96553.78;10367292;28;20084;-22
2022/06/29 00:53:37;;;;;;;3.37;3.07;;;;;;;19.27;71.44;96549.56;10366812;28;20082;-22
2022/06/29 00:58:40;;;;;;;2.88;2.60;;;;;;;19.32;71.15;96553.75;10367098;28;20038;-21
2022/06/29 01:03:41;;;;;;;4.55;3.38;;;;;;;19.29;71.11;96563.09;10368237;28;20124;-22
2022/06/29 01:08:41;;;;;;;4.33;3.10;;;;;;;19.32;70.89;96550.38;10375239;28;20116;-23
2022/06/29 01:13:43;;;;;;;3.53;3.22;;;;;;;19.28;70.83;96554.66;10366610;28;20038;-22
2022/06/29 01:18:44;;;;;;;6.00;3.13;;;;;;;19.28;71.14;96552.09;10366404;28;20049;-23
2022/06/29 01:23:44;;;;;;;3.43;2.97;;;;;;;19.25;71.07;96551.28;10370553;28;20046;-23
2022/06/29 01:28:46;;;;;;;4.22;3.55;;;;;;;19.26;70.80;96548.72;10374080;28;20030;-23
2022/06/29 01:33:48;;;;;;;5.55;3.47;;;;;;;19.27;70.91;96549.56;10372850;28;20108;-21
2022/06/29 01:38:48;;;;;;;3.90;3.50;;;;;;;19.25;70.56;96546.19;10376273;28;20045;-21
2022/06/29 01:43:48;;;;;;;6.67;3.23;;;;;;;19.22;70.76;96551.28;10370982;28;20284;-22
2022/06/29 01:48:49;;;;;;;4.17;3.50;;;;;;;19.24;70.41;96545.34;10372952;28;20029;-22
2022/06/29 01:53:49;;;;;;;4.85;3.13;;;;;;;19.21;70.80;96549.59;10400587;28;20051;-22
2022/06/29 01:58:50;;;;;;;6.40;3.07;;;;;;;19.25;70.56;96533.50;10395434;28;20034;-22
2022/06/29 02:03:51;;;;;;;3.50;3.10;;;;;;;19.27;70.26;96536.88;10374832;28;20034;-21
2022/06/29 02:08:52;;;;;;;4.25;2.83;;;;;;;19.25;70.26;96525.91;10389444;28;20034;-22
2022/06/29 02:13:52;;;;;;;3.63;3.25;;;;;;;19.20;70.29;96522.53;10371081;28;20034;-22
2022/06/29 02:18:53;;;;;;;3.30;3.00;;;;;;;19.24;70.18;96517.44;10372709;28;20034;-22
2022/06/29 02:23:54;;;;;;;3.85;3.20;;;;;;;19.21;70.17;96521.66;10371172;28;20455;-22
2022/06/29 02:28:54;;;;;;;3.28;3.00;;;;;;;19.20;70.32;96517.44;10371293;28;20092;-22
2022/06/29 02:39:14;;;;;;;5.45;3.03;;;;;;;19.20;70.03;96525.06;10371334;28;20030;-22
2022/06/29 02:44:14;;;;;;;3.33;2.77;;;;;;;19.11;69.88;96499.72;10369944;28;20030;-22
2022/06/29 02:49:14;;;;;;;5.37;2.80;;;;;;;19.18;69.75;96506.44;10370294;28;20064;-22
2022/06/29 02:54:15;;;;;;;3.20;2.90;;;;;;;19.20;69.73;96512.38;10401916;28;20675;-22
2022/06/29 02:59:15;;;;;;;4.47;3.53;;;;;;;19.17;69.72;96507.31;10390419;28;20400;-23
2022/06/29 03:04:16;;;;;;;4.63;3.13;;;;;;;19.11;69.86;96502.25;10376463;28;20037;-23
2022/06/29 03:09:16;;;;;;;3.20;2.90;;;;;;;19.14;69.53;96492.06;10374327;28;20421;-22
2022/06/29 03:14:16;;;;;;;5.00;3.13;;;;;;;19.15;69.32;96493.75;10369212;28;20301;-21
2022/06/29 03:19:17;;;;;;;4.73;2.60;;;;;;;19.13;69.26;96491.25;10369761;28;20052;-21
2022/06/29 03:24:17;;;;;;;4.00;3.10;;;;;;;19.08;69.10;96482.81;10369051;28;20046;-21
2022/06/29 03:29:18;;;;;;;5.57;3.10;;;;;;;19.22;69.14;96501.38;10369294;28;20703;-21
2022/06/29 03:34:18;;;;;;;3.03;2.83;;;;;;;19.15;69.26;96494.59;10368454;28;20484;-22
2022/06/29 03:39:18;;;;;;;4.03;2.70;;;;;;;19.15;69.10;96499.69;10375610;28;20308;-21
2022/06/29 03:44:19;;;;;;;3.10;2.80;;;;;;;19.03;69.56;96489.63;10387466;28;20140;-22
2022/06/29 03:49:20;;;;;;;3.10;2.83;;;;;;;18.67;70.94;96494.03;10406762;28;20288;-23
2022/06/29 03:54:20;;;;;;;4.28;2.90;;;;;;;18.64;71.07;96499.09;10404558;28;20040;-23
2022/06/29 03:59:20;;;;;;;5.43;2.93;;;;;;;18.57;71.37;96505.06;10434292;28;20044;-22
2022/06/29 04:04:21;;;;;;;3.33;3.00;;;;;;;18.59;71.02;96506.72;10429677;28;20060;-25
2022/06/29 04:09:21;;;;;;;5.10;2.93;;;;;;;18.54;71.28;96525.34;10375431;28;20120;-22
2022/06/29 04:14:24;;;;;;;3.77;2.40;;;;;;;18.51;71.45;96521.13;10382677;28;20459;-22
2022/06/29 04:19:25;;;;;;;5.97;3.10;;;;;;;18.51;71.37;96513.50;10424167;28;20287;-21
2022/06/29 04:24:25;;;;;;;3.20;2.90;;;;;;;18.46;71.59;96516.91;10418902;28;20467;-22
2022/06/29 04:29:26;;;;;;;5.10;2.97;;;;;;;18.40;72.04;96514.44;10381169;28;20037;-22
2022/06/29 04:34:27;;;;;;;3.72;3.15;;;;;;;18.46;72.04;96520.31;10366804;28;20289;-23
2022/06/29 04:39:27;;;;;;;3.85;2.53;;;;;;;18.44;72.24;96518.63;10376355;28;20496;-22
2022/06/29 04:44:28;;;;;;;3.55;2.88;;;;;;;18.48;71.93;96522.81;10395324;28;20116;-22
2022/06/29 04:49:28;;;;;;;3.72;2.15;;;;;;;18.50;71.95;96521.16;10448656;28;20025;-22
2022/06/29 04:54:29;;;;;;;5.95;3.15;;;;;;;18.81;70.98;96528.63;10388057;28;20041;-22
2022/06/29 04:59:29;;;;;;;11.85;3.28;;;;;;;19.27;69.22;96525.00;10372425;28;20081;-22
2022/06/29 05:04:29;;;;;;;6.03;3.45;;;;;;;19.46;68.35;96523.19;10380830;28;20044;-22
2022/06/29 05:09:30;;;;;;;6.57;2.93;;;;;;;19.56;68.29;96522.28;10415546;28;20102;-24
2022/06/29 05:14:30;;;;;;;8.32;2.95;;;;;;;19.63;67.85;96521.38;10383280;28;20029;-21
2022/06/29 05:19:31;;;;;;;3.87;3.03;;;;;;;19.67;67.61;96520.53;10374279;28;20213;-21
2022/06/29 05:24:31;;;;;;;2.30;2.20;;;;;;;19.66;67.68;96513.75;10373109;28;20508;-23
2022/06/29 05:29:33;;;;;;;7.10;2.30;;;;;;;19.74;67.66;96527.22;10373718;28;20412;-21
2022/06/29 05:34:33;;;;;;;11.07;3.05;;;;;;;19.76;68.41;96523.81;10372689;28;20034;-22
2022/06/29 05:39:34;;;;;;;6.87;2.97;;;;;;;19.87;67.99;96521.19;10413301;28;20038;-20
2022/06/29 05:44:34;;;;;;;8.63;2.83;;;;;;;20.00;67.81;96515.16;10373022;28;20036;-21
2022/06/29 05:49:35;;;;;;;4.97;2.40;;;;;;;19.91;67.15;96510.97;10371979;28;20283;-22
2022/06/29 05:54:35;;;;;;;7.32;3.13;;;;;;;19.78;67.07;96498.41;10375495;28;20455;-22
2022/06/29 05:59:36;;;;;;;4.93;2.33;;;;;;;19.88;67.05;96525.41;10372572;28;20038;-21
2022/06/29 06:04:36;;;;;;;3.00;2.70;;;;;;;19.85;67.09;96516.09;10381328;28;20095;-21
2022/06/29 06:09:37;;;;;;;2.45;2.10;;;;;;;19.88;67.15;96515.25;10377283;28;20034;-24
2022/06/29 06:14:38;;;;;;;2.17;1.90;;;;;;;19.85;66.96;96507.66;10371480;28;20378;-22
2022/06/29 06:19:38;;;;;;;1.88;1.65;;;;;;;19.87;67.12;96503.41;10371521;28;20030;-21
2022/06/29 06:24:38;;;;;;;3.03;2.30;;;;;;;19.88;67.07;96500.00;10371355;28;20030;-22
2022/06/29 06:29:39;;;;;;;2.87;2.50;;;;;;;19.97;67.35;96502.44;10371323;28;20671;-22
2022/06/29 06:34:39;;;;;;;4.68;2.50;;;;;;;20.14;66.83;96505.72;10371293;28;20041;-21
2022/06/29 06:39:39;;;;;;;2.37;2.13;;;;;;;20.16;66.42;96506.53;10379719;28;20038;-22
2022/06/29 06:45:00;;;;;;;3.33;2.15;;;;;;;20.05;66.44;96504.13;10370249;28;20818;-22
2022/06/29 06:50:00;;;;;;;3.47;1.97;;;;;;;19.98;66.61;96501.59;10370783;28;20109;-22
2022/06/29 06:55:01;;;;;;;2.27;2.07;;;;;;;19.96;66.73;96498.22;10379850;28;20420;-22
2022/06/29 07:00:02;;;;;;;3.97;2.90;;;;;;;19.94;66.88;96489.78;10369999;28;20304;-22
2022/06/29 07:05:03;;;;;;;3.72;2.08;;;;;;;19.95;66.86;96504.19;10382614;28;20086;-22
2022/06/29 07:10:04;;;;;;;3.08;2.13;;;;;;;19.95;66.96;96506.72;10383042;28;20026;-22
2022/06/29 07:15:05;;;;;;;2.38;2.03;;;;;;;19.95;66.80;96505.03;10369143;28;20038;-22
2022/06/29 07:20:07;;;;;;;1.90;1.80;;;;;;;19.93;66.88;96501.63;10368991;28;20590;-22
2022/06/29 07:25:08;;;;;;;2.95;1.88;;;;;;;20.09;67.18;96498.13;10368443;28;20044;-22
2022/06/29 07:30:09;;;;;;;2.50;2.13;;;;;;;20.25;66.76;96512.38;10368893;28;20397;-21
2022/06/29 07:35:09;;;;;;;2.78;2.22;;;;;;;20.22;66.21;96511.56;10372700;28;20034;-22
2022/06/29 07:40:11;;;;;;;1.87;1.70;;;;;;;20.09;66.29;96510.00;10375339;28;20049;-21
2022/06/29 07:45:11;;;;;;;2.10;1.92;;;;;;;20.05;66.68;96513.44;10367596;28;20346;-23
2022/06/29 07:50:12;;;;;;;1.98;1.88;;;;;;;20.01;66.48;96512.56;10368167;28;20135;-23
2022/06/29 07:55:12;;;;;;;3.88;1.80;;;;;;;20.00;66.67;96512.63;10374364;28;20436;-21
2022/06/29 08:00:13;;;;;;;2.08;1.65;;;;;;;20.01;66.76;96516.84;10367990;28;20463;-23
2022/06/29 08:05:13;;;;;;;2.13;2.00;;;;;;;20.00;66.79;96517.69;10381882;28;20036;-21
2022/06/29 08:10:14;;;;;;;2.27;2.03;;;;;;;20.00;66.82;96522.78;10374988;28;20038;-22
2022/06/29 08:15:17;;;;;;;2.33;2.10;;;;;;;20.01;66.86;96512.56;10366999;28;20300;-21
2022/06/29 08:20:17;;;;;;;3.90;2.42;;;;;;;20.24;67.00;96509.84;10367646;28;20117;-21
2022/06/29 08:25:18;;;;;;;2.93;2.10;;;;;;;20.32;66.87;96505.53;10366766;28;20042;-22
2022/06/29 08:30:18;;;;;;;1.77;1.67;;;;;;;20.21;66.42;96509.88;10364267;28;20307;-22
2022/06/29 08:35:19;;;;;;;3.15;1.90;;;;;;;20.10;66.61;96511.69;10372713;28;20120;-22
2022/06/29 08:40:20;;;;;;;3.83;2.35;;;;;;;20.08;66.56;96518.50;10386065;28;20034;-21
2022/06/29 08:45:20;;;;;;;1.80;1.70;;;;;;;20.03;66.62;96510.03;10366673;28;20038;-21
2022/06/29 08:50:21;;;;;;;1.92;1.83;;;;;;;20.06;66.57;96520.19;10367125;28;20064;-21
2022/06/29 08:55:23;;;;;;;1.60;1.50;;;;;;;20.04;66.59;96516.78;10375359;28;20042;-20
2022/06/29 09:00:27;;;;;;;1.95;1.80;;;;;;;20.05;66.64;96526.13;10366712;28;20520;-22
2022/06/29 09:05:27;;;;;;;2.30;1.65;;;;;;;20.04;66.62;96524.41;10381858;28;20124;-22
2022/06/29 09:10:31;;;;;;;2.10;2.00;;;;;;;20.15;67.24;96517.56;10390214;28;20116;-22
2022/06/29 09:15:34;;;;;;;2.50;2.30;;;;;;;20.34;66.77;96526.72;10365259;28;20507;-21
2022/06/29 09:20:42;;;;;;;1.90;1.70;;;;;;;20.32;66.03;96508.91;10366342;28;20037;-21
2022/06/29 09:25:42;;;;;;;1.73;1.63;;;;;;;20.23;66.08;96518.31;10364970;28;20412;-21
2022/06/29 09:30:43;;;;;;;2.03;1.93;;;;;;;20.11;66.46;96503.22;10365706;28;20060;-21
2022/06/29 09:35:43;;;;;;;1.90;1.70;;;;;;;20.11;66.52;96514.19;10374524;28;20048;-23
2022/06/29 09:41:09;;;;;;;2.00;1.85;;;;;;;20.09;66.58;96510.00;10368801;28;20042;-21
2022/06/29 09:46:12;;;;;;;2.00;1.80;;;;;;;20.09;66.77;96510.00;10372113;28;20108;-23
2022/06/29 09:51:31;;;;;;;1.50;1.40;;;;;;;20.05;66.58;96500.72;10380441;28;20033;-21
2022/06/29 09:56:32;;;;;;;1.80;1.70;;;;;;;20.07;66.72;96496.47;10372349;28;20129;-22
2022/06/29 10:06:53;;;;;;;2.05;1.95;;;;;;;20.31;67.34;96498.75;10399602;28;20225;-22
2022/06/29 10:17:40;;;;;;;1.50;1.40;;;;;;;20.28;66.15;96497.06;10371985;28;20540;-21
2022/06/29 10:22:40;;;;;;;1.35;1.25;;;;;;;20.19;66.10;96496.34;10370992;28;20132;-21
2022/06/29 10:28:13;;;;;;;2.13;1.98;;;;;;;20.15;66.20;96492.13;10371939;28;20299;-21
2022/06/29 10:33:37;;;;;;;1.67;1.58;;;;;;;20.13;66.37;96492.19;10371388;28;20029;-20
2022/06/29 10:38:55;;;;;;;1.70;1.50;;;;;;;20.12;66.48;96479.47;10377366;28;20489;-22
2022/06/29 10:43:55;;;;;;;3.72;2.08;;;;;;;20.10;66.87;96473.56;10370828;28;20041;-22
2022/06/29 10:49:21;;;;;;;1.85;1.48;;;;;;;20.06;66.58;96474.44;10386105;28;20515;-21
2022/06/29 10:54:29;;;;;;;1.40;1.30;;;;;;;20.12;66.55;96471.84;10409537;28;20045;-22
2022/06/29 10:59:39;;;;;;;2.85;2.47;;;;;;;20.35;66.94;96473.28;10371751;28;20456;-22
2022/06/29 11:04:41;;;;;;;2.50;1.98;;;;;;;20.45;66.72;96478.25;10379375;28;20037;-21
2022/06/29 11:20:23;;;;;;;6.97;1.88;;;;;;;20.19;66.40;96458.22;10369330;28;20104;-21
2022/06/29 11:25:25;;;;;;;2.50;1.67;;;;;;;20.17;66.38;96453.16;10368412;28;20092;-22
2022/06/29 11:30:25;;;;;;;5.45;2.08;;;;;;;20.15;66.40;96457.41;10369396;28;20431;-21
2022/06/29 11:35:26;;;;;;;3.40;2.13;;;;;;;20.08;66.50;96449.88;10374874;28;20099;-21
2022/06/29 11:40:40;;;;;;;2.63;1.70;;;;;;;20.10;66.32;96443.06;10368888;28;20032;-21
2022/06/29 11:45:51;;;;;;;2.65;1.20;;;;;;;20.14;66.54;96445.56;10366856;28;20018;-22
2022/06/29 11:50:53;;;;;;;1.95;1.70;;;;;;;20.30;66.75;96448.75;10372969;28;20471;-22
2022/06/29 11:55:57;;;;;;;3.83;2.33;;;;;;;20.46;66.93;96434.16;10408839;28;20037;-21
2022/06/29 12:00:57;;;;;;;4.07;1.52;;;;;;;20.49;65.67;96444.31;10374473;28;20595;-21
2022/06/29 12:05:59;;;;;;;6.47;1.67;;;;;;;20.36;66.12;96443.63;10379078;28;20131;-22
2022/06/29 12:11:00;;;;;;;7.05;1.90;;;;;;;20.28;66.22;96441.16;10367664;28;20038;-21
2022/06/29 12:16:00;;;;;;;5.47;1.80;;;;;;;20.29;66.39;96442.84;10366484;28;20037;-21
2022/06/29 12:21:00;;;;;;;1.60;1.50;;;;;;;20.29;66.17;96436.91;10366077;28;20038;-22
2022/06/29 12:26:01;;;;;;;3.40;1.63;;;;;;;20.31;66.14;96437.72;10366976;28;20025;-21
2022/06/29 12:31:01;;;;;;;2.45;1.88;;;;;;;20.30;65.82;96439.44;10367823;28;20069;-22
2022/06/29 12:36:02;;;;;;;2.97;1.50;;;;;;;20.30;65.98;96444.53;10371038;28;20467;-21
2022/06/29 12:41:02;;;;;;;3.00;1.30;;;;;;;20.30;66.06;96438.59;10367340;28;20044;-21
2022/06/29 12:46:03;;;;;;;2.63;2.27;;;;;;;20.43;67.38;96428.25;10366280;28;20057;-23
2022/06/29 12:51:03;;;;;;;4.20;2.40;;;;;;;20.58;67.24;96438.25;10372796;28;20034;-23
2022/06/29 12:56:04;;;;;;;1.85;1.50;;;;;;;20.44;65.70;96435.88;10378066;28;20323;-22
2022/06/29 13:01:05;;;;;;;4.43;1.35;;;;;;;20.38;65.84;96434.25;10366470;28;20038;-21
2022/06/29 13:06:05;;;;;;;3.70;1.83;;;;;;;20.34;65.80;96430.91;10375742;28;20227;-20
2022/06/29 13:11:06;;;;;;;2.47;1.67;;;;;;;20.32;65.70;96432.66;10366930;28;20038;-22
2022/06/29 13:16:07;;;;;;;2.35;1.70;;;;;;;20.29;66.04;96427.59;10366552;28;20068;-21
2022/06/29 13:21:08;;;;;;;3.80;1.33;;;;;;;20.30;65.88;96426.75;10374142;28;20404;-22
2022/06/29 13:26:08;;;;;;;1.90;1.70;;;;;;;20.32;65.80;96421.63;10373587;28;20026;-21
2022/06/29 13:31:10;;;;;;;1.50;1.40;;;;;;;20.29;65.93;96422.53;10374279;28;20080;-21
2022/06/29 13:36:11;;;;;;;2.55;1.77;;;;;;;20.34;66.22;96420.75;10386019;28;20318;-21
2022/06/29 13:41:11;;;;;;;3.58;2.45;;;;;;;20.54;67.35;96419.63;10415121;28;20037;-21
2022/06/29 13:46:12;;;;;;;1.50;1.40;;;;;;;20.55;66.05;96413.69;10377490;28;20061;-21
2022/06/29 13:51:12;;;;;;;2.70;1.77;;;;;;;20.43;65.63;96416.41;10380670;28;20666;-21
2022/06/29 13:56:13;;;;;;;2.30;1.17;;;;;;;20.37;65.67;96414.78;10413818;28;20495;-21
2022/06/29 14:01:14;;;;;;;1.40;1.30;;;;;;;20.37;65.90;96414.78;10377333;28;20408;-21
2022/06/29 14:06:16;;;;;;;2.17;1.42;;;;;;;20.36;66.02;96413.09;10395371;28;20033;-21
2022/06/29 14:11:16;;;;;;;1.67;1.45;;;;;;;20.34;65.83;96409.75;10377011;28;20038;-23
2022/06/29 14:16:17;;;;;;;2.28;1.20;;;;;;;20.32;66.03;96401.28;10371815;28;20033;-22
2022/06/29 14:21:17;;;;;;;2.20;1.53;;;;;;;20.34;65.99;96404.66;10372201;28;20041;-25
2022/06/29 14:26:17;;;;;;;1.50;1.33;;;;;;;20.30;66.10;96396.22;10371445;28;20033;-22
2022/06/29 14:31:18;;;;;;;1.57;1.47;;;;;;;20.48;66.87;96393.44;10371535;28;20025;-21
2022/06/29 14:36:18;;;;;;;1.90;1.77;;;;;;;20.61;66.98;96385.63;10384494;28;20338;-22
2022/06/29 14:41:19;;;;;;;2.43;1.50;;;;;;;20.51;65.42;96368.81;10412579;28;20569;-21
2022/06/29 14:46:19;;;;;;;1.38;1.25;;;;;;;20.43;65.58;96369.78;10374370;28;20447;-21
2022/06/29 14:51:20;;;;;;;1.20;1.10;;;;;;;20.39;65.78;96368.97;10378793;28;20471;-21
2022/06/29 14:56:20;;;;;;;1.98;1.15;;;;;;;20.38;65.76;96371.56;10411224;28;20040;-22
2022/06/29 15:01:21;;;;;;;1.67;1.47;;;;;;;20.33;65.74;96352.13;10373872;28;20038;-21
2022/06/29 15:06:21;;;;;;;1.27;1.10;;;;;;;20.36;66.04;96363.06;10376963;28;20041;-21
2022/06/29 15:11:22;;;;;;;2.45;1.40;;;;;;;20.35;65.83;96355.50;10370550;28;20049;-21
2022/06/29 15:16:22;;;;;;;1.60;1.50;;;;;;;20.32;65.98;96348.75;10369081;28;20559;-21
2022/06/29 15:21:22;;;;;;;1.70;1.60;;;;;;;20.34;66.07;96344.47;10370030;28;20038;-21
2022/06/29 15:26:23;;;;;;;2.20;2.00;;;;;;;20.57;67.01;96335.66;10368956;28;20022;-20
2022/06/29 15:31:31;;;;;;;1.40;1.30;;;;;;;20.63;66.02;96335.56;10371731;28;20091;-21
2022/06/29 15:41:50;;;;;;;1.40;1.30;;;;;;;20.40;65.50;96324.88;10370010;28;20042;-22
2022/06/29 15:46:51;;;;;;;1.00;1.00;;;;;;;20.38;65.76;96326.59;10370769;28;20092;-22
2022/06/29 15:51:52;;;;;;;1.58;1.48;;;;;;;20.38;65.78;96319.84;10383696;28;20033;-20
2022/06/29 15:56:52;;;;;;;1.40;1.30;;;;;;;20.37;65.89;96318.16;10394676;28;20053;-20
2022/06/29 16:01:53;;;;;;;1.37;1.10;;;;;;;20.33;65.80;96294.47;10370095;28;20050;-20
2022/06/29 16:06:53;;;;;;;1.55;1.45;;;;;;;20.30;65.96;96297.09;10385833;28;20420;-20
2022/06/29 16:12:13;;;;;;;1.67;1.40;;;;;;;20.31;65.69;96297.91;10370111;28;20065;-23
2022/06/29 16:17:14;;;;;;;3.53;1.70;;;;;;;20.51;66.60;96291.69;10369339;28;20137;-20
2022/06/29 16:22:15;;;;;;;4.45;2.25;;;;;;;20.69;66.42;96293.94;10369825;28;20167;-22
2022/06/29 16:27:16;;;;;;;1.50;1.40;;;;;;;20.61;65.21;96288.13;10369356;28;20022;-20
2022/06/29 16:32:17;;;;;;;5.50;1.35;;;;;;;20.44;65.49;96290.94;10368117;28;20030;-21
2022/06/29 16:37:17;;;;;;;1.65;1.20;;;;;;;20.42;65.46;96286.72;10372223;28;20041;-21
2022/06/29 16:42:18;;;;;;;1.52;1.42;;;;;;;20.39;65.59;96279.16;10366478;28;20025;-21
2022/06/29 16:47:18;;;;;;;1.60;1.13;;;;;;;20.39;65.82;96274.06;10366510;28;20040;-22
2022/06/29 16:52:18;;;;;;;1.27;1.10;;;;;;;20.38;66.00;96280.84;10391817;28;20291;-21
2022/06/29 16:57:19;;;;;;;2.40;1.17;;;;;;;20.39;65.99;96272.34;10435096;28;20043;-21
2022/06/29 17:02:19;;;;;;;1.60;1.40;;;;;;;20.40;65.85;96270.66;10446280;28;20825;-21
2022/06/29 17:07:19;;;;;;;2.97;1.30;;;;;;;20.42;66.03;96268.94;10400403;28;20298;-22
2022/06/29 17:12:20;;;;;;;7.53;2.57;;;;;;;20.62;67.35;96265.22;10406969;28;20121;-21
2022/06/29 17:17:23;;;;;;;4.63;2.22;;;;;;;20.69;66.60;96254.09;10410663;28;20797;-22
2022/06/29 17:22:24;;;;;;;1.58;1.20;;;;;;;20.56;65.29;96254.31;10396581;28;20056;-22
2022/06/29 17:27:24;;;;;;;1.55;1.27;;;;;;;20.48;65.68;96258.66;10402353;28;20037;-20
2022/06/29 17:32:24;;;;;;;5.37;1.20;;;;;;;20.46;65.43;96245.97;10396705;28;20521;-22
2022/06/29 17:37:25;;;;;;;1.50;1.37;;;;;;;20.46;65.73;96247.69;10395627;28;20030;-21
2022/06/29 17:42:32;;;;;;;2.42;1.50;;;;;;;20.46;65.73;96247.69;10394249;28;20524;-20
2022/06/29 17:47:32;;;;;;;2.88;1.60;;;;;;;20.45;65.60;96240.94;10396267;28;20048;-21
2022/06/29 17:52:32;;;;;;;2.00;1.30;;;;;;;20.43;65.72;96238.41;10398153;28;20030;-22
2022/06/29 17:57:33;;;;;;;1.50;1.27;;;;;;;20.42;65.91;96239.28;10402961;28;20856;-21
2022/06/29 18:02:33;;;;;;;6.40;1.80;;;;;;;20.51;67.27;96231.50;10401343;28;20037;-22
2022/06/29 18:07:34;;;;;;;6.83;3.10;;;;;;;20.70;68.28;96242.19;10391234;28;20033;-22
2022/06/29 18:12:34;;;;;;;3.67;1.37;;;;;;;20.71;65.96;96243.91;10410885;28;20302;-21
2022/06/29 18:17:35;;;;;;;2.07;1.43;;;;;;;20.54;65.50;96236.53;10426787;28;20029;-21
2022/06/29 18:22:35;;;;;;;4.68;1.40;;;;;;;20.47;65.81;96240.03;10425395;28;20571;-21
2022/06/29 18:27:36;;;;;;;1.97;1.20;;;;;;;20.45;65.72;96249.38;10416700;28;20033;-21
2022/06/29 18:32:36;;;;;;;1.77;1.30;;;;;;;20.43;65.69;96253.66;10416956;28;20037;-21
2022/06/29 18:37:37;;;;;;;2.80;1.30;;;;;;;20.40;65.89;96253.69;10400339;28;20042;-20
2022/06/29 18:42:37;;;;;;;1.75;1.13;;;;;;;20.43;65.75;96255.34;10364641;28;20083;-20
2022/06/29 18:47:38;;;;;;;3.30;1.80;;;;;;;20.41;65.88;96252.00;10414264;28;20031;-20
2022/06/29 18:52:38;;;;;;;1.63;1.10;;;;;;;20.40;66.08;96253.69;10404528;28;20299;-21
2022/06/29 18:57:40;;;;;;;4.97;1.60;;;;;;;20.57;67.40;96276.34;10402904;28;20040;-21
2022/06/29 19:02:41;;;;;;;3.88;2.00;;;;;;;20.74;68.92;96269.28;10397009;28;20040;-21
2022/06/29 19:07:42;;;;;;;3.83;1.13;;;;;;;20.69;65.94;96279.53;10406065;28;20037;-21
2022/06/29 19:12:43;;;;;;;3.15;1.10;;;;;;;20.54;65.80;96276.38;10413514;28;20029;-21
2022/06/29 19:17:43;;;;;;;3.00;1.10;;;;;;;20.48;65.70;96279.00;10418584;28;20037;-21
2022/06/29 19:22:44;;;;;;;2.72;1.00;;;;;;;20.45;65.81;96289.25;10420618;28;20302;-20
2022/06/29 19:27:44;;;;;;;3.10;1.30;;;;;;;20.42;66.15;96291.00;10430353;28;20034;-20
2022/06/29 19:32:46;;;;;;;1.40;1.00;;;;;;;20.42;66.02;96292.66;10363922;28;20045;-22
2022/06/29 19:37:46;;;;;;;1.17;1.08;;;;;;;20.45;65.84;96297.69;10383090;28;20038;-21
2022/06/29 19:42:47;;;;;;;1.30;1.10;;;;;;;20.45;65.85;96302.78;10363144;28;20030;-21
2022/06/29 19:47:47;;;;;;;5.13;1.50;;;;;;;20.60;66.96;96317.81;10395695;28;20094;-21
2022/06/29 19:52:47;;;;;;;4.80;1.70;;;;;;;20.78;66.60;96317.53;10380756;28;20034;-20
2022/06/29 19:57:48;;;;;;;4.87;1.97;;;;;;;20.63;65.77;96325.41;10389526;28;20045;-21
2022/06/29 20:02:48;;;;;;;2.37;0.97;;;;;;;20.55;65.89;96328.94;10412373;28;20025;-22
2022/06/29 20:07:49;;;;;;;1.10;1.00;;;;;;;20.48;65.81;96335.78;10410128;28;20284;-21
2022/06/29 20:12:49;;;;;;;1.20;1.10;;;;;;;20.45;66.00;96333.28;10389888;28;20040;-21
2022/06/29 20:17:49;;;;;;;2.93;1.60;;;;;;;20.44;65.97;96341.78;10370112;28;20129;-22
2022/06/29 20:22:51;;;;;;;1.10;1.00;;;;;;;20.43;65.91;96344.34;10361585;28;20041;-22
2022/06/29 20:27:51;;;;;;;3.13;1.40;;;;;;;20.61;66.77;96350.03;10362845;28;20053;-21
2022/06/29 20:32:52;;;;;;;1.98;1.52;;;;;;;20.70;67.15;96337.16;10365565;28;20129;-21
2022/06/29 20:37:53;;;;;;;1.30;1.20;;;;;;;20.66;65.78;96355.03;10383465;28;20033;-21
2022/06/29 20:42:53;;;;;;;1.23;1.13;;;;;;;20.54;65.57;96356.06;10425130;28;20496;-22
2022/06/29 20:47:55;;;;;;;1.17;1.07;;;;;;;20.49;65.89;96355.28;10431165;28;20517;-21
2022/06/29 20:52:56;;;;;;;2.83;1.40;;;;;;;20.49;66.13;96357.84;10412142;28;20033;-22
2022/06/29 20:57:57;;;;;;;4.53;1.42;;;;;;;20.47;65.96;96357.00;10427641;28;20057;-21
2022/06/29 21:02:57;;;;;;;1.20;1.10;;;;;;;20.44;66.25;96358.75;10408229;28;20029;-21
2022/06/29 21:07:57;;;;;;;2.97;1.10;;;;;;;20.44;65.69;96366.38;10420898;28;20040;-20
2022/06/29 21:12:58;;;;;;;1.07;0.80;;;;;;;20.42;65.93;96376.59;10410379;28;20512;-21
2022/06/29 21:17:59;;;;;;;2.83;1.40;;;;;;;20.60;66.57;96368.69;10389954;28;20037;-21
2022/06/29 21:22:59;;;;;;;2.45;1.60;;;;;;;20.77;67.01;96374.38;10384277;28;20030;-21
2022/06/29 21:27:59;;;;;;;1.27;1.10;;;;;;;20.73;65.64;96379.53;10365889;28;20064;-20
2022/06/29 21:33:00;;;;;;;1.10;1.00;;;;;;;20.56;65.30;96386.56;10365625;28;20049;-21
2022/06/29 21:38:00;;;;;;;1.87;1.03;;;;;;;20.50;65.64;96386.63;10365892;28;20029;-21
2022/06/29 21:43:00;;;;;;;1.00;1.00;;;;;;;20.45;65.59;96384.16;10372684;28;20037;-21
2022/06/29 21:48:01;;;;;;;2.20;1.17;;;;;;;20.45;65.73;96384.16;10373640;28;20030;-21
2022/06/29 21:53:01;;;;;;;1.00;0.83;;;;;;;20.43;65.72;96385.88;10394304;28;20040;-21
2022/06/29 21:58:01;;;;;;;4.10;1.20;;;;;;;20.42;65.70;96386.75;10418035;28;20531;-20
2022/06/29 22:03:02;;;;;;;1.13;1.10;;;;;;;20.42;65.60;96383.34;10370667;28;20041;-21
2022/06/29 22:08:02;;;;;;;2.03;1.20;;;;;;;20.44;66.06;96381.63;10398437;28;20026;-22
2022/06/29 22:13:03;;;;;;;2.72;1.33;;;;;;;20.64;66.79;96365.22;10372006;28;20034;-21
2022/06/29 22:18:03;;;;;;;1.50;1.40;;;;;;;20.76;64.94;96375.25;10395862;28;20523;-21
2022/06/29 22:23:04;;;;;;;1.20;1.10;;;;;;;20.63;65.22;96378.00;10382470;28;20384;-21
2022/06/29 22:28:04;;;;;;;1.13;1.03;;;;;;;20.51;65.18;96384.09;10371761;28;20108;-23
2022/06/29 22:33:05;;;;;;;2.23;1.00;;;;;;;20.47;65.61;96384.16;10371478;28;20289;-21
2022/06/29 22:38:05;;;;;;;1.02;0.88;;;;;;;20.44;65.46;96379.94;10371778;28;20034;-21
2022/06/29 22:43:06;;;;;;;1.17;1.03;;;;;;;20.43;65.81;96390.97;10370124;28;20558;-21
2022/06/29 22:48:06;;;;;;;1.88;0.95;;;;;;;20.40;65.75;96380.81;10370600;28;20092;-20
2022/06/29 22:53:06;;;;;;;0.97;0.97;;;;;;;20.42;65.65;96380.00;10392652;28;20037;-22
2022/06/29 22:58:07;;;;;;;1.30;1.20;;;;;;;20.36;65.53;96373.25;10400993;28;20037;-21
2022/06/29 23:03:07;;;;;;;1.88;1.27;;;;;;;20.53;65.68;96379.81;10369665;28;20809;-21
2022/06/29 23:08:07;;;;;;;1.80;1.20;;;;;;;20.73;65.68;96365.09;10409238;28;20068;-20
2022/06/29 23:13:08;;;;;;;1.23;1.13;;;;;;;20.76;64.91;96365.06;10384195;28;20040;-20
2022/06/29 23:18:08;;;;;;;1.50;1.40;;;;;;;20.60;64.86;96368.69;10394672;28;20304;-21
2022/06/29 23:23:09;;;;;;;1.17;1.03;;;;;;;20.48;65.09;96358.66;10390515;28;20033;-20
2022/06/29 23:28:12;;;;;;;1.13;0.90;;;;;;;20.47;65.40;96362.09;10369316;28;20288;-22
2022/06/29 23:33:14;;;;;;;0.80;0.80;;;;;;;20.43;65.50;96349.44;10368819;28;20029;-22
2022/06/29 23:38:15;;;;;;;0.88;0.85;;;;;;;20.42;65.32;96363.88;10368886;28;20034;-21
2022/06/29 23:43:15;;;;;;;0.80;0.80;;;;;;;20.42;65.35;96367.28;10368542;28;20084;-21
2022/06/29 23:48:15;;;;;;;1.20;1.10;;;;;;;20.42;65.28;96362.19;10369031;28;20038;-21
2022/06/29 23:53:16;;;;;;;1.20;1.10;;;;;;;20.41;65.47;96361.34;10377756;28;20564;-21